map of GHU home
Great Circle Mapper logo
GHU - Airport
Location
City:  Gualeguaychu, Entre Ríos, Argentina
ICAO / IATA:SAAG / GHU

Details
Type:Airport (Aerodrome, Airfield)
Latitude:33°00'37"S (-33.010277)
Longitude:58°36'47"W (-58.613055)
Datum:WGS 1984
Elevation:75 ft (23 m)
Variation:9.2°W (WMM2015 magnetic declination)
Runways:1
Longest:4357 × 98 ft (1328 × 30 m), paved

Time
Time Zone:UTC-3
Local Time:

Weather
METAR:SAAG 210834Z 18004KT 2500 RA SCT006 BKN040 20/19 Q1003

Related Locations
Nearby:
Farthest:YNZ: 12367 mi / 19903 km
Yancheng, Jiangsu, CN

Find:

   beyond  
but within

Other Information
Maps:
NOTAMs:
Links:
Sources:

  
flag of Argentina   

Sectional Chart

Flight Planning
at skyvector.com

Satellite Image

Google Maps Satellite View

 

Copyright © 2004-2014 Karl L. Swartz. All rights reserved.
The Great Circle Mapper name and logo are trademarks of the Great Circle Mapper.
All other trademarks mentioned herein belong to their respective owners.
Please see credits for attibutions and further copyright information.

  Follow gcmap on Facebook Follow gcmap on Twitter

hCard Microformat

Geo Microformat